sensor_id;sensor_type;location;lat;lon;timestamp;P1;durP1;ratioP1;P2;durP2;ratioP2
12367;SDS011;6248;49.812;6.620;2023-03-01T00:02:06;5.27;;;4.40;;
12367;SDS011;6248;49.812;6.620;2023-03-01T00:04:33;4.97;;;4.40;;
12367;SDS011;6248;49.812;6.620;2023-03-01T00:07:01;6.17;;;4.63;;
12367;SDS011;6248;49.812;6.620;2023-03-01T00:09:28;4.80;;;4.30;;
12367;SDS011;6248;49.812;6.620;2023-03-01T00:11:56;6.27;;;4.63;;
12367;SDS011;6248;49.812;6.620;2023-03-01T00:14:23;5.37;;;4.87;;
12367;SDS011;6248;49.812;6.620;2023-03-01T00:16:51;5.63;;;4.70;;
12367;SDS011;6248;49.812;6.620;2023-03-01T00:19:18;6.00;;;5.30;;
12367;SDS011;6248;49.812;6.620;2023-03-01T00:21:47;7.23;;;5.43;;
12367;SDS011;6248;49.812;6.620;2023-03-01T00:24:14;6.67;;;5.90;;
12367;SDS011;6248;49.812;6.620;2023-03-01T00:26:41;5.43;;;4.93;;
12367;SDS011;6248;49.812;6.620;2023-03-01T00:29:10;6.37;;;5.40;;
12367;SDS011;6248;49.812;6.620;2023-03-01T00:31:37;7.57;;;5.90;;
12367;SDS011;6248;49.812;6.620;2023-03-01T00:34:04;6.80;;;5.63;;
12367;SDS011;6248;49.812;6.620;2023-03-01T00:36:32;5.93;;;5.03;;
12367;SDS011;6248;49.812;6.620;2023-03-01T00:38:59;5.73;;;5.00;;
12367;SDS011;6248;49.812;6.620;2023-03-01T00:41:27;5.73;;;5.13;;
12367;SDS011;6248;49.812;6.620;2023-03-01T00:43:54;5.60;;;5.10;;
12367;SDS011;6248;49.812;6.620;2023-03-01T00:46:23;5.93;;;4.63;;
12367;SDS011;6248;49.812;6.620;2023-03-01T00:48:51;6.23;;;5.17;;
12367;SDS011;6248;49.812;6.620;2023-03-01T00:51:19;6.20;;;5.47;;
12367;SDS011;6248;49.812;6.620;2023-03-01T00:53:46;6.20;;;5.60;;
12367;SDS011;6248;49.812;6.620;2023-03-01T00:56:14;6.90;;;5.63;;
12367;SDS011;6248;49.812;6.620;2023-03-01T00:58:41;6.50;;;5.53;;
12367;SDS011;6248;49.812;6.620;2023-03-01T01:01:08;6.73;;;5.77;;
12367;SDS011;6248;49.812;6.620;2023-03-01T01:03:44;5.67;;;5.17;;
12367;SDS011;6248;49.812;6.620;2023-03-01T01:06:14;5.83;;;5.23;;
12367;SDS011;6248;49.812;6.620;2023-03-01T01:08:42;6.90;;;5.90;;
12367;SDS011;6248;49.812;6.620;2023-03-01T01:11:09;6.20;;;5.60;;
12367;SDS011;6248;49.812;6.620;2023-03-01T01:13:37;6.50;;;5.50;;
12367;SDS011;6248;49.812;6.620;2023-03-01T01:16:04;6.83;;;5.20;;
12367;SDS011;6248;49.812;6.620;2023-03-01T01:18:31;7.70;;;5.83;;
12367;SDS011;6248;49.812;6.620;2023-03-01T01:21:04;6.37;;;5.30;;
12367;SDS011;6248;49.812;6.620;2023-03-01T01:23:32;6.30;;;5.70;;
12367;SDS011;6248;49.812;6.620;2023-03-01T01:26:03;6.33;;;5.70;;
12367;SDS011;6248;49.812;6.620;2023-03-01T01:28:30;6.43;;;5.70;;
12367;SDS011;6248;49.812;6.620;2023-03-01T01:30:57;7.83;;;6.23;;
12367;SDS011;6248;49.812;6.620;2023-03-01T01:33:24;7.43;;;6.23;;
12367;SDS011;6248;49.812;6.620;2023-03-01T01:35:51;7.10;;;5.97;;
12367;SDS011;6248;49.812;6.620;2023-03-01T01:38:20;6.90;;;6.17;;
12367;SDS011;6248;49.812;6.620;2023-03-01T01:40:48;9.00;;;5.80;;
12367;SDS011;6248;49.812;6.620;2023-03-01T01:43:17;6.27;;;5.50;;
12367;SDS011;6248;49.812;6.620;2023-03-01T01:45:45;5.90;;;5.30;;
12367;SDS011;6248;49.812;6.620;2023-03-01T01:48:13;6.60;;;5.87;;
12367;SDS011;6248;49.812;6.620;2023-03-01T01:50:41;6.80;;;6.10;;
12367;SDS011;6248;49.812;6.620;2023-03-01T01:53:10;10.87;;;6.20;;
12367;SDS011;6248;49.812;6.620;2023-03-01T01:55:41;7.33;;;6.37;;
12367;SDS011;6248;49.812;6.620;2023-03-01T01:58:09;7.27;;;6.10;;
12367;SDS011;6248;49.812;6.620;2023-03-01T02:00:37;7.63;;;5.90;;
12367;SDS011;6248;49.812;6.620;2023-03-01T02:03:06;7.93;;;6.73;;
12367;SDS011;6248;49.812;6.620;2023-03-01T02:05:36;7.90;;;6.70;;
12367;SDS011;6248;49.812;6.620;2023-03-01T02:08:05;7.90;;;6.40;;
12367;SDS011;6248;49.812;6.620;2023-03-01T02:10:33;6.80;;;5.97;;
12367;SDS011;6248;49.812;6.620;2023-03-01T02:13:02;9.37;;;5.93;;
12367;SDS011;6248;49.812;6.620;2023-03-01T02:15:31;6.83;;;6.13;;
12367;SDS011;6248;49.812;6.620;2023-03-01T02:17:58;6.97;;;6.23;;
12367;SDS011;6248;49.812;6.620;2023-03-01T02:20:26;7.73;;;6.23;;
12367;SDS011;6248;49.812;6.620;2023-03-01T02:22:57;7.87;;;6.50;;
12367;SDS011;6248;49.812;6.620;2023-03-01T02:25:31;9.67;;;6.17;;
12367;SDS011;6248;49.812;6.620;2023-03-01T02:28:02;8.93;;;6.50;;
12367;SDS011;6248;49.812;6.620;2023-03-01T02:30:34;7.07;;;6.37;;
12367;SDS011;6248;49.812;6.620;2023-03-01T02:33:02;8.07;;;6.50;;
12367;SDS011;6248;49.812;6.620;2023-03-01T02:35:30;8.57;;;6.30;;
12367;SDS011;6248;49.812;6.620;2023-03-01T02:37:58;7.23;;;6.10;;
12367;SDS011;6248;49.812;6.620;2023-03-01T02:40:26;7.07;;;6.27;;
12367;SDS011;6248;49.812;6.620;2023-03-01T02:42:55;8.20;;;7.10;;
12367;SDS011;6248;49.812;6.620;2023-03-01T02:45:23;10.00;;;6.73;;
12367;SDS011;6248;49.812;6.620;2023-03-01T02:47:54;7.63;;;6.50;;
12367;SDS011;6248;49.812;6.620;2023-03-01T02:50:27;7.77;;;6.40;;
12367;SDS011;6248;49.812;6.620;2023-03-01T02:53:01;8.20;;;6.70;;
12367;SDS011;6248;49.812;6.620;2023-03-01T02:55:28;9.43;;;6.70;;
12367;SDS011;6248;49.812;6.620;2023-03-01T02:57:56;10.67;;;6.83;;
12367;SDS011;6248;49.812;6.620;2023-03-01T03:00:28;7.43;;;6.63;;
12367;SDS011;6248;49.812;6.620;2023-03-01T03:02:59;8.57;;;7.30;;
12367;SDS011;6248;49.812;6.620;2023-03-01T03:05:27;8.20;;;6.83;;
12367;SDS011;6248;49.812;6.620;2023-03-01T03:07:54;7.77;;;6.97;;
12367;SDS011;6248;49.812;6.620;2023-03-01T03:10:23;7.87;;;6.50;;
12367;SDS011;6248;49.812;6.620;2023-03-01T03:12:50;7.77;;;6.93;;
12367;SDS011;6248;49.812;6.620;2023-03-01T03:15:18;10.47;;;7.80;;
12367;SDS011;6248;49.812;6.620;2023-03-01T03:17:45;10.77;;;7.03;;
12367;SDS011;6248;49.812;6.620;2023-03-01T03:20:15;8.03;;;7.10;;
12367;SDS011;6248;49.812;6.620;2023-03-01T03:22:44;8.40;;;7.50;;
12367;SDS011;6248;49.812;6.620;2023-03-01T03:25:11;9.97;;;7.83;;
12367;SDS011;6248;49.812;6.620;2023-03-01T03:27:39;9.17;;;7.30;;
12367;SDS011;6248;49.812;6.620;2023-03-01T03:30:07;8.53;;;7.00;;
12367;SDS011;6248;49.812;6.620;2023-03-01T03:32:37;9.43;;;7.50;;
12367;SDS011;6248;49.812;6.620;2023-03-01T03:35:05;7.97;;;7.17;;
12367;SDS011;6248;49.812;6.620;2023-03-01T03:37:36;10.00;;;7.83;;
12367;SDS011;6248;49.812;6.620;2023-03-01T03:40:20;10.30;;;7.53;;
12367;SDS011;6248;49.812;6.620;2023-03-01T03:42:48;10.73;;;7.77;;
12367;SDS011;6248;49.812;6.620;2023-03-01T03:45:15;9.47;;;7.80;;
12367;SDS011;6248;49.812;6.620;2023-03-01T03:47:42;8.30;;;7.40;;
12367;SDS011;6248;49.812;6.620;2023-03-01T03:50:10;8.27;;;7.37;;
12367;SDS011;6248;49.812;6.620;2023-03-01T03:52:38;9.33;;;8.00;;
12367;SDS011;6248;49.812;6.620;2023-03-01T03:55:06;9.30;;;7.50;;
12367;SDS011;6248;49.812;6.620;2023-03-01T03:57:35;7.90;;;7.10;;
12367;SDS011;6248;49.812;6.620;2023-03-01T04:00:03;10.53;;;7.53;;
12367;SDS011;6248;49.812;6.620;2023-03-01T04:02:30;10.57;;;8.50;;
12367;SDS011;6248;49.812;6.620;2023-03-01T04:04:58;8.77;;;7.77;;
12367;SDS011;6248;49.812;6.620;2023-03-01T04:07:25;8.63;;;7.57;;
12367;SDS011;6248;49.812;6.620;2023-03-01T04:09:53;10.57;;;8.10;;
12367;SDS011;6248;49.812;6.620;2023-03-01T04:12:20;9.37;;;8.37;;
12367;SDS011;6248;49.812;6.620;2023-03-01T04:14:48;10.53;;;8.20;;
12367;SDS011;6248;49.812;6.620;2023-03-01T04:17:15;8.87;;;7.83;;
12367;SDS011;6248;49.812;6.620;2023-03-01T04:19:44;9.30;;;8.27;;
12367;SDS011;6248;49.812;6.620;2023-03-01T04:22:13;11.07;;;8.77;;
12367;SDS011;6248;49.812;6.620;2023-03-01T04:24:43;9.90;;;7.93;;
12367;SDS011;6248;49.812;6.620;2023-03-01T04:27:11;10.13;;;8.30;;
12367;SDS011;6248;49.812;6.620;2023-03-01T04:29:38;9.73;;;8.50;;
12367;SDS011;6248;49.812;6.620;2023-03-01T04:32:06;8.90;;;8.00;;
12367;SDS011;6248;49.812;6.620;2023-03-01T04:34:33;10.63;;;8.13;;
12367;SDS011;6248;49.812;6.620;2023-03-01T04:37:00;11.60;;;8.60;;
12367;SDS011;6248;49.812;6.620;2023-03-01T04:39:27;9.80;;;8.50;;
12367;SDS011;6248;49.812;6.620;2023-03-01T04:41:55;10.07;;;8.57;;
12367;SDS011;6248;49.812;6.620;2023-03-01T04:44:23;12.60;;;8.53;;
12367;SDS011;6248;49.812;6.620;2023-03-01T04:46:50;11.93;;;8.77;;
12367;SDS011;6248;49.812;6.620;2023-03-01T04:49:17;9.60;;;8.57;;
12367;SDS011;6248;49.812;6.620;2023-03-01T04:51:44;12.30;;;9.10;;
12367;SDS011;6248;49.812;6.620;2023-03-01T04:54:12;10.50;;;8.83;;
12367;SDS011;6248;49.812;6.620;2023-03-01T04:56:39;10.73;;;8.57;;
12367;SDS011;6248;49.812;6.620;2023-03-01T04:59:06;10.90;;;8.67;;
12367;SDS011;6248;49.812;6.620;2023-03-01T05:01:36;9.67;;;8.40;;
12367;SDS011;6248;49.812;6.620;2023-03-01T05:04:03;10.27;;;9.10;;
12367;SDS011;6248;49.812;6.620;2023-03-01T05:06:30;12.10;;;9.37;;
12367;SDS011;6248;49.812;6.620;2023-03-01T05:08:57;12.83;;;9.43;;
12367;SDS011;6248;49.812;6.620;2023-03-01T05:11:25;12.63;;;9.10;;
12367;SDS011;6248;49.812;6.620;2023-03-01T05:13:53;11.57;;;9.67;;
12367;SDS011;6248;49.812;6.620;2023-03-01T05:16:20;10.60;;;8.90;;
12367;SDS011;6248;49.812;6.620;2023-03-01T05:18:48;12.40;;;9.33;;
12367;SDS011;6248;49.812;6.620;2023-03-01T05:21:16;9.60;;;8.43;;
12367;SDS011;6248;49.812;6.620;2023-03-01T05:23:43;10.20;;;8.93;;
12367;SDS011;6248;49.812;6.620;2023-03-01T05:26:11;11.07;;;8.70;;
12367;SDS011;6248;49.812;6.620;2023-03-01T05:28:39;10.47;;;9.27;;
12367;SDS011;6248;49.812;6.620;2023-03-01T05:31:06;10.97;;;9.33;;
12367;SDS011;6248;49.812;6.620;2023-03-01T05:33:35;10.17;;;9.07;;
12367;SDS011;6248;49.812;6.620;2023-03-01T05:36:05;11.60;;;9.10;;
12367;SDS011;6248;49.812;6.620;2023-03-01T05:38:32;10.60;;;9.47;;
12367;SDS011;6248;49.812;6.620;2023-03-01T05:40:59;11.57;;;8.83;;
12367;SDS011;6248;49.812;6.620;2023-03-01T05:43:29;9.80;;;8.80;;
12367;SDS011;6248;49.812;6.620;2023-03-01T05:45:58;11.73;;;9.20;;
12367;SDS011;6248;49.812;6.620;2023-03-01T05:48:26;10.97;;;9.27;;
12367;SDS011;6248;49.812;6.620;2023-03-01T05:50:53;11.63;;;9.67;;
12367;SDS011;6248;49.812;6.620;2023-03-01T05:53:21;10.33;;;9.20;;
12367;SDS011;6248;49.812;6.620;2023-03-01T05:55:48;11.53;;;9.33;;
12367;SDS011;6248;49.812;6.620;2023-03-01T05:58:16;11.20;;;9.93;;
12367;SDS011;6248;49.812;6.620;2023-03-01T06:00:45;11.53;;;9.30;;
12367;SDS011;6248;49.812;6.620;2023-03-01T06:03:13;11.07;;;9.30;;
12367;SDS011;6248;49.812;6.620;2023-03-01T06:05:41;11.30;;;9.33;;
12367;SDS011;6248;49.812;6.620;2023-03-01T06:08:09;12.30;;;9.57;;
12367;SDS011;6248;49.812;6.620;2023-03-01T06:10:37;14.10;;;9.57;;
12367;SDS011;6248;49.812;6.620;2023-03-01T06:13:05;11.43;;;9.97;;
12367;SDS011;6248;49.812;6.620;2023-03-01T06:15:32;11.90;;;9.90;;
12367;SDS011;6248;49.812;6.620;2023-03-01T06:17:59;11.93;;;10.07;;
12367;SDS011;6248;49.812;6.620;2023-03-01T06:20:27;13.30;;;10.40;;
12367;SDS011;6248;49.812;6.620;2023-03-01T06:22:54;13.50;;;10.10;;
12367;SDS011;6248;49.812;6.620;2023-03-01T06:25:22;11.27;;;10.07;;
12367;SDS011;6248;49.812;6.620;2023-03-01T06:27:51;14.07;;;10.63;;
12367;SDS011;6248;49.812;6.620;2023-03-01T06:30:19;16.70;;;13.00;;
12367;SDS011;6248;49.812;6.620;2023-03-01T06:32:46;17.03;;;12.40;;
12367;SDS011;6248;49.812;6.620;2023-03-01T06:35:14;14.83;;;12.00;;
12367;SDS011;6248;49.812;6.620;2023-03-01T06:37:43;15.70;;;11.63;;
12367;SDS011;6248;49.812;6.620;2023-03-01T06:40:10;16.40;;;12.23;;
12367;SDS011;6248;49.812;6.620;2023-03-01T06:42:39;15.63;;;12.90;;
12367;SDS011;6248;49.812;6.620;2023-03-01T06:45:09;13.27;;;11.77;;
12367;SDS011;6248;49.812;6.620;2023-03-01T06:47:36;13.40;;;10.60;;
12367;SDS011;6248;49.812;6.620;2023-03-01T06:50:03;14.30;;;11.47;;
12367;SDS011;6248;49.812;6.620;2023-03-01T06:52:31;13.30;;;11.00;;
12367;SDS011;6248;49.812;6.620;2023-03-01T06:54:58;14.13;;;11.73;;
12367;SDS011;6248;49.812;6.620;2023-03-01T06:57:25;14.47;;;11.80;;
12367;SDS011;6248;49.812;6.620;2023-03-01T06:59:52;13.50;;;11.37;;
12367;SDS011;6248;49.812;6.620;2023-03-01T07:02:21;15.83;;;11.47;;
12367;SDS011;6248;49.812;6.620;2023-03-01T07:04:48;15.73;;;11.93;;
12367;SDS011;6248;49.812;6.620;2023-03-01T07:07:16;13.57;;;11.00;;
12367;SDS011;6248;49.812;6.620;2023-03-01T07:09:43;14.57;;;11.47;;
12367;SDS011;6248;49.812;6.620;2023-03-01T07:12:11;16.97;;;12.17;;
12367;SDS011;6248;49.812;6.620;2023-03-01T07:14:38;15.23;;;11.80;;
12367;SDS011;6248;49.812;6.620;2023-03-01T07:17:06;15.33;;;12.17;;
12367;SDS011;6248;49.812;6.620;2023-03-01T07:19:34;16.83;;;12.97;;
12367;SDS011;6248;49.812;6.620;2023-03-01T07:22:03;14.23;;;11.87;;
12367;SDS011;6248;49.812;6.620;2023-03-01T07:24:32;15.87;;;12.73;;
12367;SDS011;6248;49.812;6.620;2023-03-01T07:27:00;14.10;;;11.33;;
12367;SDS011;6248;49.812;6.620;2023-03-01T07:29:27;14.40;;;11.60;;
12367;SDS011;6248;49.812;6.620;2023-03-01T07:31:55;15.30;;;11.87;;
12367;SDS011;6248;49.812;6.620;2023-03-01T07:34:22;22.40;;;15.57;;
12367;SDS011;6248;49.812;6.620;2023-03-01T07:36:51;26.10;;;17.10;;
12367;SDS011;6248;49.812;6.620;2023-03-01T07:39:18;20.70;;;14.27;;
12367;SDS011;6248;49.812;6.620;2023-03-01T07:41:48;23.87;;;14.53;;
12367;SDS011;6248;49.812;6.620;2023-03-01T07:44:15;18.37;;;12.73;;
12367;SDS011;6248;49.812;6.620;2023-03-01T07:46:42;17.80;;;12.87;;
12367;SDS011;6248;49.812;6.620;2023-03-01T07:49:12;17.87;;;12.77;;
12367;SDS011;6248;49.812;6.620;2023-03-01T07:51:39;17.10;;;12.50;;
12367;SDS011;6248;49.812;6.620;2023-03-01T07:54:08;16.40;;;12.47;;
12367;SDS011;6248;49.812;6.620;2023-03-01T07:56:36;23.23;;;15.17;;
12367;SDS011;6248;49.812;6.620;2023-03-01T07:59:05;15.03;;;12.40;;
12367;SDS011;6248;49.812;6.620;2023-03-01T08:01:33;15.63;;;12.67;;
12367;SDS011;6248;49.812;6.620;2023-03-01T08:04:00;15.97;;;13.13;;
12367;SDS011;6248;49.812;6.620;2023-03-01T08:06:29;14.10;;;12.00;;
12367;SDS011;6248;49.812;6.620;2023-03-01T08:08:57;15.23;;;12.13;;
12367;SDS011;6248;49.812;6.620;2023-03-01T08:11:26;15.30;;;12.00;;
12367;SDS011;6248;49.812;6.620;2023-03-01T08:13:54;16.00;;;12.70;;
12367;SDS011;6248;49.812;6.620;2023-03-01T08:16:21;15.23;;;11.97;;
12367;SDS011;6248;49.812;6.620;2023-03-01T08:18:48;13.77;;;11.67;;
12367;SDS011;6248;49.812;6.620;2023-03-01T08:21:16;13.63;;;11.70;;
12367;SDS011;6248;49.812;6.620;2023-03-01T08:23:43;14.77;;;11.90;;
12367;SDS011;6248;49.812;6.620;2023-03-01T08:26:12;16.40;;;11.60;;
12367;SDS011;6248;49.812;6.620;2023-03-01T08:28:41;15.20;;;12.20;;
12367;SDS011;6248;49.812;6.620;2023-03-01T08:31:15;15.73;;;12.33;;
12367;SDS011;6248;49.812;6.620;2023-03-01T08:33:43;13.97;;;11.50;;
12367;SDS011;6248;49.812;6.620;2023-03-01T08:36:15;15.53;;;12.23;;
12367;SDS011;6248;49.812;6.620;2023-03-01T08:38:43;14.90;;;11.37;;
12367;SDS011;6248;49.812;6.620;2023-03-01T08:41:10;16.10;;;12.03;;
12367;SDS011;6248;49.812;6.620;2023-03-01T08:43:38;14.30;;;11.73;;
12367;SDS011;6248;49.812;6.620;2023-03-01T08:46:07;13.43;;;11.13;;
12367;SDS011;6248;49.812;6.620;2023-03-01T08:48:34;15.57;;;11.80;;
12367;SDS011;6248;49.812;6.620;2023-03-01T08:51:08;13.67;;;11.33;;
12367;SDS011;6248;49.812;6.620;2023-03-01T08:53:36;12.27;;;10.80;;
12367;SDS011;6248;49.812;6.620;2023-03-01T08:56:03;14.53;;;11.37;;
12367;SDS011;6248;49.812;6.620;2023-03-01T08:58:31;13.77;;;10.97;;
12367;SDS011;6248;49.812;6.620;2023-03-01T09:00:59;13.83;;;11.37;;
12367;SDS011;6248;49.812;6.620;2023-03-01T09:03:29;13.97;;;11.90;;
12367;SDS011;6248;49.812;6.620;2023-03-01T09:05:59;16.00;;;11.97;;
12367;SDS011;6248;49.812;6.620;2023-03-01T09:08:27;16.37;;;11.43;;
12367;SDS011;6248;49.812;6.620;2023-03-01T09:10:54;13.27;;;11.03;;
12367;SDS011;6248;49.812;6.620;2023-03-01T09:13:22;13.27;;;11.37;;
12367;SDS011;6248;49.812;6.620;2023-03-01T09:15:50;15.10;;;11.33;;
12367;SDS011;6248;49.812;6.620;2023-03-01T09:18:17;14.60;;;11.37;;
12367;SDS011;6248;49.812;6.620;2023-03-01T09:20:46;14.43;;;11.90;;
12367;SDS011;6248;49.812;6.620;2023-03-01T09:23:14;14.00;;;11.40;;
12367;SDS011;6248;49.812;6.620;2023-03-01T09:25:41;14.37;;;11.47;;
12367;SDS011;6248;49.812;6.620;2023-03-01T09:28:08;12.30;;;10.77;;
12367;SDS011;6248;49.812;6.620;2023-03-01T09:30:36;14.03;;;11.63;;
12367;SDS011;6248;49.812;6.620;2023-03-01T09:33:03;13.53;;;11.03;;
12367;SDS011;6248;49.812;6.620;2023-03-01T09:35:30;13.50;;;11.17;;
12367;SDS011;6248;49.812;6.620;2023-03-01T09:37:59;14.70;;;11.60;;
12367;SDS011;6248;49.812;6.620;2023-03-01T09:40:27;13.83;;;10.70;;
12367;SDS011;6248;49.812;6.620;2023-03-01T09:42:57;14.13;;;11.00;;
12367;SDS011;6248;49.812;6.620;2023-03-01T09:45:27;13.13;;;11.13;;
12367;SDS011;6248;49.812;6.620;2023-03-01T09:47:56;13.80;;;10.30;;
12367;SDS011;6248;49.812;6.620;2023-03-01T09:50:23;14.87;;;11.57;;
12367;SDS011;6248;49.812;6.620;2023-03-01T09:52:54;14.10;;;10.80;;
12367;SDS011;6248;49.812;6.620;2023-03-01T09:55:28;12.67;;;11.07;;
12367;SDS011;6248;49.812;6.620;2023-03-01T09:57:58;13.47;;;11.03;;
12367;SDS011;6248;49.812;6.620;2023-03-01T10:00:33;12.57;;;10.50;;
12367;SDS011;6248;49.812;6.620;2023-03-01T10:03:07;16.10;;;10.73;;
12367;SDS011;6248;49.812;6.620;2023-03-01T10:05:41;13.90;;;11.00;;
12367;SDS011;6248;49.812;6.620;2023-03-01T10:08:15;13.60;;;10.93;;
12367;SDS011;6248;49.812;6.620;2023-03-01T10:10:47;13.30;;;11.03;;
12367;SDS011;6248;49.812;6.620;2023-03-01T10:13:16;12.07;;;10.50;;
12367;SDS011;6248;49.812;6.620;2023-03-01T10:15:47;14.07;;;11.27;;
12367;SDS011;6248;49.812;6.620;2023-03-01T10:18:21;13.63;;;11.23;;
12367;SDS011;6248;49.812;6.620;2023-03-01T10:20:52;12.60;;;10.67;;
12367;SDS011;6248;49.812;6.620;2023-03-01T10:23:19;14.07;;;11.37;;
12367;SDS011;6248;49.812;6.620;2023-03-01T10:25:54;14.33;;;11.33;;
12367;SDS011;6248;49.812;6.620;2023-03-01T10:28:25;13.40;;;11.03;;
12367;SDS011;6248;49.812;6.620;2023-03-01T10:30:52;13.73;;;11.90;;
12367;SDS011;6248;49.812;6.620;2023-03-01T10:33:20;12.93;;;11.57;;
12367;SDS011;6248;49.812;6.620;2023-03-01T10:35:49;11.37;;;10.17;;
12367;SDS011;6248;49.812;6.620;2023-03-01T10:38:16;12.50;;;11.20;;
12367;SDS011;6248;49.812;6.620;2023-03-01T10:40:54;13.17;;;11.67;;
12367;SDS011;6248;49.812;6.620;2023-03-01T10:43:23;13.27;;;11.20;;
12367;SDS011;6248;49.812;6.620;2023-03-01T10:45:51;12.50;;;11.20;;
12367;SDS011;6248;49.812;6.620;2023-03-01T10:48:19;12.33;;;10.93;;
12367;SDS011;6248;49.812;6.620;2023-03-01T10:50:49;12.50;;;10.40;;
12367;SDS011;6248;49.812;6.620;2023-03-01T10:53:24;13.17;;;11.77;;
12367;SDS011;6248;49.812;6.620;2023-03-01T10:55:59;12.83;;;11.20;;
12367;SDS011;6248;49.812;6.620;2023-03-01T10:58:27;12.07;;;10.77;;
12367;SDS011;6248;49.812;6.620;2023-03-01T11:00:55;12.87;;;11.10;;
12367;SDS011;6248;49.812;6.620;2023-03-01T11:03:23;13.77;;;11.63;;
12367;SDS011;6248;49.812;6.620;2023-03-01T11:05:56;12.53;;;10.90;;
12367;SDS011;6248;49.812;6.620;2023-03-01T11:08:31;12.77;;;11.47;;
12367;SDS011;6248;49.812;6.620;2023-03-01T11:11:05;12.83;;;11.43;;
12367;SDS011;6248;49.812;6.620;2023-03-01T11:13:33;13.30;;;11.90;;
12367;SDS011;6248;49.812;6.620;2023-03-01T11:16:02;13.10;;;11.80;;
12367;SDS011;6248;49.812;6.620;2023-03-01T11:18:30;14.40;;;12.30;;
12367;SDS011;6248;49.812;6.620;2023-03-01T11:20:58;13.53;;;11.67;;
12367;SDS011;6248;49.812;6.620;2023-03-01T11:23:26;13.17;;;11.83;;
12367;SDS011;6248;49.812;6.620;2023-03-01T11:25:55;12.80;;;11.40;;
12367;SDS011;6248;49.812;6.620;2023-03-01T11:28:24;14.27;;;12.77;;
12367;SDS011;6248;49.812;6.620;2023-03-01T11:30:53;13.03;;;11.73;;
12367;SDS011;6248;49.812;6.620;2023-03-01T11:33:25;13.30;;;11.33;;
12367;SDS011;6248;49.812;6.620;2023-03-01T11:36:00;12.00;;;10.80;;
12367;SDS011;6248;49.812;6.620;2023-03-01T11:38:29;12.60;;;11.30;;
12367;SDS011;6248;49.812;6.620;2023-03-01T11:41:01;13.37;;;11.70;;
12367;SDS011;6248;49.812;6.620;2023-03-01T11:43:35;13.33;;;11.30;;
12367;SDS011;6248;49.812;6.620;2023-03-01T11:48:56;12.30;;;11.00;;
12367;SDS011;6248;49.812;6.620;2023-03-01T11:51:27;12.67;;;11.37;;
12367;SDS011;6248;49.812;6.620;2023-03-01T11:54:00;13.77;;;11.23;;
12367;SDS011;6248;49.812;6.620;2023-03-01T11:56:31;14.03;;;11.33;;
12367;SDS011;6248;49.812;6.620;2023-03-01T12:01:58;11.53;;;10.43;;
12367;SDS011;6248;49.812;6.620;2023-03-01T12:07:15;13.20;;;11.57;;
12367;SDS011;6248;49.812;6.620;2023-03-01T12:09:47;12.27;;;10.53;;
12367;SDS011;6248;49.812;6.620;2023-03-01T12:12:27;11.27;;;10.13;;
12367;SDS011;6248;49.812;6.620;2023-03-01T12:14:59;11.93;;;10.73;;
12367;SDS011;6248;49.812;6.620;2023-03-01T12:17:48;13.00;;;11.17;;
12367;SDS011;6248;49.812;6.620;2023-03-01T12:20:21;13.10;;;10.80;;
12367;SDS011;6248;49.812;6.620;2023-03-01T12:22:56;12.00;;;10.80;;
12367;SDS011;6248;49.812;6.620;2023-03-01T12:25:25;11.93;;;10.73;;
12367;SDS011;6248;49.812;6.620;2023-03-01T12:27:59;12.67;;;11.37;;
12367;SDS011;6248;49.812;6.620;2023-03-01T12:30:32;12.67;;;11.33;;
12367;SDS011;6248;49.812;6.620;2023-03-01T12:33:09;13.40;;;11.93;;
12367;SDS011;6248;49.812;6.620;2023-03-01T12:35:46;16.80;;;12.50;;
12367;SDS011;6248;49.812;6.620;2023-03-01T12:38:20;13.00;;;11.20;;
12367;SDS011;6248;49.812;6.620;2023-03-01T12:41:02;12.60;;;11.00;;
12367;SDS011;6248;49.812;6.620;2023-03-01T12:43:36;12.57;;;11.23;;
12367;SDS011;6248;49.812;6.620;2023-03-01T12:46:09;11.80;;;10.50;;
12367;SDS011;6248;49.812;6.620;2023-03-01T12:48:43;12.27;;;11.07;;
12367;SDS011;6248;49.812;6.620;2023-03-01T12:51:14;12.40;;;11.10;;
12367;SDS011;6248;49.812;6.620;2023-03-01T12:53:42;12.77;;;11.17;;
12367;SDS011;6248;49.812;6.620;2023-03-01T12:56:11;13.27;;;11.33;;
12367;SDS011;6248;49.812;6.620;2023-03-01T12:58:39;12.23;;;11.00;;
12367;SDS011;6248;49.812;6.620;2023-03-01T13:01:13;12.50;;;11.13;;
12367;SDS011;6248;49.812;6.620;2023-03-01T13:03:48;12.50;;;11.30;;
12367;SDS011;6248;49.812;6.620;2023-03-01T13:06:21;12.73;;;10.77;;
12367;SDS011;6248;49.812;6.620;2023-03-01T13:08:52;13.17;;;11.50;;
12367;SDS011;6248;49.812;6.620;2023-03-01T13:11:22;15.40;;;13.40;;
12367;SDS011;6248;49.812;6.620;2023-03-01T13:13:49;13.43;;;11.27;;
12367;SDS011;6248;49.812;6.620;2023-03-01T13:16:21;12.83;;;11.50;;
12367;SDS011;6248;49.812;6.620;2023-03-01T13:18:50;12.37;;;11.10;;
12367;SDS011;6248;49.812;6.620;2023-03-01T13:21:32;12.67;;;11.20;;
12367;SDS011;6248;49.812;6.620;2023-03-01T13:23:59;12.60;;;11.33;;
12367;SDS011;6248;49.812;6.620;2023-03-01T13:26:26;11.83;;;10.60;;
12367;SDS011;6248;49.812;6.620;2023-03-01T13:28:54;11.50;;;10.40;;
12367;SDS011;6248;49.812;6.620;2023-03-01T13:34:19;13.57;;;11.63;;
12367;SDS011;6248;49.812;6.620;2023-03-01T13:37:08;11.90;;;10.43;;
12367;SDS011;6248;49.812;6.620;2023-03-01T13:39:39;12.20;;;11.00;;
12367;SDS011;6248;49.812;6.620;2023-03-01T13:44:48;11.83;;;9.53;;
12367;SDS011;6248;49.812;6.620;2023-03-01T13:47:16;12.40;;;10.73;;
12367;SDS011;6248;49.812;6.620;2023-03-01T13:49:47;12.30;;;11.00;;
12367;SDS011;6248;49.812;6.620;2023-03-01T13:52:28;12.67;;;11.23;;
12367;SDS011;6248;49.812;6.620;2023-03-01T13:54:58;12.67;;;10.73;;
12367;SDS011;6248;49.812;6.620;2023-03-01T13:57:28;11.43;;;10.33;;
12367;SDS011;6248;49.812;6.620;2023-03-01T13:59:58;10.37;;;9.20;;
12367;SDS011;6248;49.812;6.620;2023-03-01T14:02:26;11.47;;;10.27;;
12367;SDS011;6248;49.812;6.620;2023-03-01T14:04:58;13.87;;;10.90;;
12367;SDS011;6248;49.812;6.620;2023-03-01T14:07:25;11.90;;;10.70;;
12367;SDS011;6248;49.812;6.620;2023-03-01T14:09:55;11.23;;;10.10;;
12367;SDS011;6248;49.812;6.620;2023-03-01T14:12:36;10.57;;;9.43;;
12367;SDS011;6248;49.812;6.620;2023-03-01T14:15:06;11.73;;;10.53;;
12367;SDS011;6248;49.812;6.620;2023-03-01T14:17:47;11.63;;;9.93;;
12367;SDS011;6248;49.812;6.620;2023-03-01T14:20:19;11.17;;;9.97;;
12367;SDS011;6248;49.812;6.620;2023-03-01T14:22:47;11.73;;;10.33;;
12367;SDS011;6248;49.812;6.620;2023-03-01T14:25:28;10.77;;;9.67;;
12367;SDS011;6248;49.812;6.620;2023-03-01T14:28:00;10.40;;;9.37;;
12367;SDS011;6248;49.812;6.620;2023-03-01T14:30:30;10.83;;;9.57;;
12367;SDS011;6248;49.812;6.620;2023-03-01T14:32:58;10.53;;;9.43;;
12367;SDS011;6248;49.812;6.620;2023-03-01T14:35:27;11.20;;;10.03;;
12367;SDS011;6248;49.812;6.620;2023-03-01T14:37:55;11.53;;;10.20;;
12367;SDS011;6248;49.812;6.620;2023-03-01T14:40:23;12.10;;;10.60;;
12367;SDS011;6248;49.812;6.620;2023-03-01T14:42:51;12.37;;;10.23;;
12367;SDS011;6248;49.812;6.620;2023-03-01T14:45:18;12.17;;;10.57;;
12367;SDS011;6248;49.812;6.620;2023-03-01T14:47:46;12.63;;;10.10;;
12367;SDS011;6248;49.812;6.620;2023-03-01T14:50:19;13.37;;;9.97;;
12367;SDS011;6248;49.812;6.620;2023-03-01T14:52:50;11.23;;;10.10;;
12367;SDS011;6248;49.812;6.620;2023-03-01T14:55:18;11.17;;;9.97;;
12367;SDS011;6248;49.812;6.620;2023-03-01T14:57:47;11.90;;;9.77;;
12367;SDS011;6248;49.812;6.620;2023-03-01T15:00:16;11.90;;;9.60;;
12367;SDS011;6248;49.812;6.620;2023-03-01T15:02:45;10.17;;;9.17;;
12367;SDS011;6248;49.812;6.620;2023-03-01T15:05:13;11.63;;;10.03;;
12367;SDS011;6248;49.812;6.620;2023-03-01T15:07:41;10.57;;;9.47;;
12367;SDS011;6248;49.812;6.620;2023-03-01T15:10:17;10.33;;;8.70;;
12367;SDS011;6248;49.812;6.620;2023-03-01T15:12:46;12.00;;;9.13;;